Camden, Delaware
Current Conditions -  °F | °C
As of 1:58 AM on Saturday 29 Nov 2014 (Local Time) from KDOV Reporting Station
Scattered Clouds Scattered Clouds  
Wind Chill: 26°   Ceiling: Unl
Heat Index: 26°   Visibility: 10mi
Dew Point: 20°   Wind: 2mph
Humidity: 78%   Direction: 300°WNW
Pressure: 30.3"   Gusts: NA
Location:  39.0852°N, 75.6325°W
Report Text: KDOV 290658Z AUTO 30002KT 10SM SCT090 SCT200 M03/M07 A3030 RMK AO2 SLP264 T10321066
Loading
Personal Weather Stations






























Interactive Weather Map New forecast layout! Learn more

10-Day Weather Forecast

Advertisements
Track Severe Weather on mobile